Time;durP1;ratioP1;P1;durP2;ratioP2;P2;SDS_P1;SDS_P2;PMS_P1;PMS_P2;Temp;Humidity;BMP_temperature;BMP_pressure;BME280_temperature;BME280_humidity;BME280_pressure;Samples;Min_cycle;Max_cycle;Signal;HPM_P1;HPM_P2
2022/03/24 00:00:30;;;;;;;8.93;5.75;;;4.00;25.90;;;;;;5126597;27;36291;-75
2022/03/24 00:02:56;;;;;;;10.13;5.85;;;4.00;25.80;;;;;;5127814;27;34191;-74
2022/03/24 00:05:22;;;;;;;15.10;6.35;;;4.00;25.80;;;;;;5127398;27;34509;-74
2022/03/24 00:07:47;;;;;;;8.00;5.50;;;3.90;25.90;;;;;;5123487;27;35841;-74
2022/03/24 00:10:14;;;;;;;11.50;6.15;;;3.80;25.90;;;;;;5125128;27;34988;-74
2022/03/24 00:12:40;;;;;;;9.35;5.95;;;3.80;25.90;;;;;;5123061;27;34244;-74
2022/03/24 00:15:08;;;;;;;16.30;7.25;;;3.80;25.90;;;;;;5123220;27;34444;-74
2022/03/24 00:17:34;;;;;;;12.90;6.88;;;3.80;26.10;;;;;;5124084;27;34120;-74
2022/03/24 00:20:00;;;;;;;12.88;6.97;;;3.80;26.10;;;;;;5106164;27;36673;-74
2022/03/24 00:22:27;;;;;;;9.90;6.03;;;3.70;26.20;;;;;;5124250;27;34172;-74
2022/03/24 00:25:00;;;;;;;10.02;5.80;;;3.70;26.30;;;;;;5106753;27;34119;-74
2022/03/24 00:27:27;;;;;;;10.55;6.72;;;3.70;26.20;;;;;;5123621;27;34452;-74
2022/03/24 00:29:54;;;;;;;10.48;5.90;;;3.60;26.20;;;;;;5124427;27;34546;-74
2022/03/24 00:32:20;;;;;;;11.25;6.65;;;3.60;26.20;;;;;;5123275;27;34419;-74
2022/03/24 00:34:46;;;;;;;10.52;5.85;;;3.60;26.20;;;;;;5123853;27;34150;-75
2022/03/24 00:37:12;;;;;;;9.55;6.07;;;3.60;26.00;;;;;;5123883;27;34538;-74
2022/03/24 00:39:40;;;;;;;10.38;6.10;;;3.50;26.40;;;;;;5105961;27;36223;-74
2022/03/24 00:42:08;;;;;;;11.18;5.95;;;3.50;26.20;;;;;;5123164;27;34241;-74
2022/03/24 00:44:35;;;;;;;10.48;6.40;;;3.50;26.60;;;;;;5122550;27;34258;-74
2022/03/24 00:47:02;;;;;;;9.23;5.60;;;3.40;26.40;;;;;;5106080;27;34156;-74
2022/03/24 00:49:29;;;;;;;11.57;6.40;;;3.40;26.40;;;;;;5088675;27;36230;-74
2022/03/24 00:51:55;;;;;;;9.82;6.15;;;3.40;26.30;;;;;;5124112;27;34087;-74
2022/03/24 00:54:21;;;;;;;11.05;5.93;;;3.40;27.00;;;;;;5126500;27;34274;-74
2022/03/24 00:56:47;;;;;;;9.98;6.35;;;3.40;26.50;;;;;;5109984;27;34568;-74
2022/03/24 00:59:13;;;;;;;12.85;7.20;;;3.40;26.60;;;;;;5126706;27;34452;-74
2022/03/24 01:01:39;;;;;;;12.23;5.65;;;3.40;26.50;;;;;;5126242;27;34640;-74
2022/03/24 01:04:07;;;;;;;10.40;5.90;;;3.30;26.80;;;;;;5127766;27;34279;-75
2022/03/24 01:06:34;;;;;;;8.70;5.88;;;3.30;27.20;;;;;;5131847;27;33696;-74
2022/03/24 01:09:01;;;;;;;11.13;6.20;;;3.20;27.00;;;;;;5113604;27;36412;-74
2022/03/24 01:11:27;;;;;;;9.23;5.47;;;3.10;27.30;;;;;;5129897;27;34275;-74
2022/03/24 01:13:53;;;;;;;12.50;6.85;;;3.10;27.30;;;;;;5118910;27;34407;-74
2022/03/24 01:16:19;;;;;;;14.13;6.50;;;3.00;27.30;;;;;;5126697;27;34215;-74
2022/03/24 01:18:46;;;;;;;13.75;6.78;;;3.00;27.30;;;;;;5147186;27;34218;-74
2022/03/24 01:21:16;;;;;;;13.02;7.15;;;2.90;27.50;;;;;;5129841;27;34191;-74
2022/03/24 01:23:44;;;;;;;12.30;6.82;;;2.90;27.60;;;;;;5148434;27;34057;-74
2022/03/24 01:26:12;;;;;;;12.15;7.22;;;2.90;27.90;;;;;;5113343;27;34098;-74
2022/03/24 01:28:40;;;;;;;11.13;7.40;;;2.90;28.30;;;;;;5147735;27;34179;-74
2022/03/24 01:31:08;;;;;;;10.35;6.00;;;2.90;28.20;;;;;;5129800;27;34165;-74
2022/03/24 01:33:37;;;;;;;11.93;6.78;;;2.80;28.10;;;;;;5129506;27;34144;-74
2022/03/24 01:36:05;;;;;;;14.25;6.75;;;2.80;28.60;;;;;;5129677;27;34139;-74
2022/03/24 01:38:32;;;;;;;10.07;6.15;;;2.80;28.30;;;;;;5111964;27;36666;-74
2022/03/24 01:40:58;;;;;;;9.20;5.57;;;2.80;28.20;;;;;;5129836;27;34328;-74
2022/03/24 01:43:25;;;;;;;14.68;7.22;;;2.80;28.10;;;;;;5129112;27;34359;-74
2022/03/24 01:45:51;;;;;;;18.17;6.60;;;2.70;28.10;;;;;;5148259;27;34518;-74
2022/03/24 01:48:18;;;;;;;10.13;6.32;;;2.70;28.00;;;;;;5129552;27;35615;-74
2022/03/24 01:50:44;;;;;;;11.48;6.95;;;2.70;27.90;;;;;;5129972;27;34112;-74
2022/03/24 01:53:12;;;;;;;11.40;7.57;;;2.70;28.10;;;;;;5112767;27;34196;-74
2022/03/24 01:55:39;;;;;;;13.25;7.28;;;2.70;28.10;;;;;;5148311;27;34152;-74
2022/03/24 01:58:06;;;;;;;10.45;6.40;;;2.70;27.90;;;;;;5129594;27;36144;-74
2022/03/24 02:00:32;;;;;;;12.05;6.32;;;2.70;28.30;;;;;;5129915;27;34286;-74
2022/03/24 02:03:04;;;;;;;13.50;7.35;;;2.60;28.30;;;;;;5147991;27;34027;-74
2022/03/24 02:05:32;;;;;;;9.25;6.22;;;2.60;28.20;;;;;;5129242;27;34207;-74
2022/03/24 02:08:02;;;;;;;12.60;6.68;;;2.60;28.60;;;;;;5128922;27;35598;-75
2022/03/24 02:10:28;;;;;;;12.05;6.65;;;2.50;28.50;;;;;;5113276;27;34161;-75
2022/03/24 02:12:56;;;;;;;12.35;7.25;;;2.50;28.60;;;;;;5148356;27;34244;-74
2022/03/24 02:15:24;;;;;;;12.23;6.50;;;2.50;28.70;;;;;;5129876;27;34618;-74
2022/03/24 02:17:52;;;;;;;13.30;7.32;;;2.40;28.30;;;;;;5112198;27;36397;-74
2022/03/24 02:20:21;;;;;;;14.27;6.78;;;2.40;28.20;;;;;;5147552;27;34171;-74
2022/03/24 02:22:48;;;;;;;14.15;7.10;;;2.40;28.50;;;;;;5147736;27;34237;-75
2022/03/24 02:25:14;;;;;;;14.45;6.97;;;2.40;28.60;;;;;;5129570;27;34135;-75
2022/03/24 02:27:41;;;;;;;9.38;5.57;;;2.30;28.60;;;;;;5128845;27;34168;-74
2022/03/24 02:30:09;;;;;;;10.07;6.10;;;2.30;28.50;;;;;;5112593;27;34270;-74
2022/03/24 02:32:35;;;;;;;12.75;7.03;;;2.30;28.80;;;;;;5130117;27;34242;-75
2022/03/24 02:35:01;;;;;;;13.48;6.60;;;2.30;28.80;;;;;;5129482;27;34451;-75
2022/03/24 02:37:28;;;;;;;14.23;6.85;;;2.30;29.00;;;;;;5129354;27;34292;-74
2022/03/24 02:39:56;;;;;;;12.27;7.13;;;2.20;29.00;;;;;;5112779;27;34358;-74
2022/03/24 02:42:25;;;;;;;14.07;6.93;;;2.20;29.00;;;;;;5148273;27;34232;-74
2022/03/24 02:44:54;;;;;;;13.88;7.60;;;2.20;29.20;;;;;;5129908;27;34741;-74
2022/03/24 02:47:20;;;;;;;10.90;6.55;;;2.10;29.20;;;;;;5094443;27;35664;-74
2022/03/24 02:49:48;;;;;;;13.20;7.60;;;2.10;29.10;;;;;;5129310;27;34322;-74
2022/03/24 02:52:15;;;;;;;13.52;7.38;;;2.10;29.40;;;;;;5129277;27;34397;-74
2022/03/24 02:54:41;;;;;;;14.00;7.00;;;2.10;29.00;;;;;;5128838;27;34217;-74
2022/03/24 02:57:08;;;;;;;12.25;6.45;;;2.10;29.00;;;;;;5129552;27;35972;-74
2022/03/24 02:59:35;;;;;;;11.95;7.05;;;2.10;29.20;;;;;;5112415;27;34097;-75
2022/03/24 03:02:06;;;;;;;12.73;7.10;;;2.00;29.00;;;;;;5147090;27;34062;-74
2022/03/24 03:04:34;;;;;;;11.85;6.57;;;2.00;28.80;;;;;;5112615;27;34206;-75
2022/03/24 03:07:02;;;;;;;10.95;6.68;;;2.00;28.80;;;;;;5129728;27;34453;-75
2022/03/24 03:09:30;;;;;;;12.35;6.28;;;2.00;29.00;;;;;;5130669;27;34222;-74
2022/03/24 03:11:56;;;;;;;13.70;7.28;;;1.90;29.20;;;;;;5112105;27;34084;-75
2022/03/24 03:14:22;;;;;;;15.55;7.80;;;1.90;29.30;;;;;;5129699;27;34047;-74
2022/03/24 03:16:48;;;;;;;10.77;6.75;;;1.90;29.20;;;;;;5128169;27;36451;-75
2022/03/24 03:19:17;;;;;;;12.07;6.85;;;1.90;29.30;;;;;;5129480;27;34096;-75
2022/03/24 03:21:44;;;;;;;13.18;7.05;;;1.90;29.20;;;;;;5112916;27;34491;-75
2022/03/24 03:24:11;;;;;;;12.13;6.43;;;1.90;29.20;;;;;;5130331;27;34409;-75
2022/03/24 03:26:38;;;;;;;11.75;6.80;;;1.80;29.20;;;;;;5112611;27;35541;-75
2022/03/24 03:29:06;;;;;;;13.48;6.28;;;1.80;29.00;;;;;;5148575;27;34355;-74
2022/03/24 03:31:34;;;;;;;16.35;8.57;;;1.80;29.00;;;;;;5129727;27;34329;-75
2022/03/24 03:34:01;;;;;;;12.85;7.65;;;1.80;29.20;;;;;;5146736;27;34394;-75
2022/03/24 03:36:28;;;;;;;11.05;6.70;;;1.70;29.10;;;;;;5146526;27;34203;-75
2022/03/24 03:38:54;;;;;;;12.30;6.85;;;1.70;29.30;;;;;;5128214;27;34389;-75
2022/03/24 03:41:22;;;;;;;13.75;7.00;;;1.70;29.60;;;;;;5146596;27;34086;-75
2022/03/24 03:43:49;;;;;;;13.18;7.35;;;1.60;29.60;;;;;;5146406;27;34148;-75
2022/03/24 03:46:16;;;;;;;17.85;7.57;;;1.60;29.70;;;;;;5128528;27;34198;-75
2022/03/24 03:48:43;;;;;;;12.25;6.97;;;1.60;29.80;;;;;;5147376;27;34140;-75
2022/03/24 03:51:09;;;;;;;12.45;7.07;;;1.60;29.90;;;;;;5129362;27;34040;-76
2022/03/24 03:53:36;;;;;;;12.05;6.93;;;1.60;29.80;;;;;;5111706;27;34428;-76
2022/03/24 03:56:05;;;;;;;12.00;6.63;;;1.60;29.60;;;;;;5128352;27;36451;-76
2022/03/24 03:58:31;;;;;;;15.68;7.32;;;1.60;29.60;;;;;;5093858;27;34286;-76
2022/03/24 04:00:57;;;;;;;11.43;6.80;;;1.60;29.40;;;;;;5110795;27;34244;-76
2022/03/24 04:03:26;;;;;;;12.73;6.97;;;1.50;29.40;;;;;;5145832;27;34382;-76
2022/03/24 04:05:54;;;;;;;14.75;7.95;;;1.50;29.60;;;;;;5126670;27;35762;-76
2022/03/24 04:08:20;;;;;;;12.82;6.85;;;1.50;29.90;;;;;;5145438;27;34392;-76
2022/03/24 04:10:49;;;;;;;10.32;6.50;;;1.50;30.00;;;;;;5146033;27;34523;-76
2022/03/24 04:13:17;;;;;;;11.65;6.70;;;1.50;30.30;;;;;;5127261;27;34281;-76
2022/03/24 04:15:43;;;;;;;12.38;7.22;;;1.40;30.10;;;;;;5109683;27;36523;-76
2022/03/24 04:18:09;;;;;;;14.02;7.15;;;1.40;30.00;;;;;;5127068;27;34144;-76
2022/03/24 04:20:36;;;;;;;10.07;6.32;;;1.40;30.30;;;;;;5127373;27;34174;-77
2022/03/24 04:23:04;;;;;;;13.57;6.85;;;1.40;30.30;;;;;;5145745;27;34202;-77
2022/03/24 04:25:30;;;;;;;13.18;6.55;;;1.30;30.50;;;;;;5109210;27;36754;-77
2022/03/24 04:27:56;;;;;;;13.00;6.65;;;1.30;30.10;;;;;;5126269;27;34123;-77
2022/03/24 04:30:22;;;;;;;13.93;6.97;;;1.30;29.90;;;;;;5126926;27;34169;-77
2022/03/24 04:32:49;;;;;;;16.40;6.78;;;1.30;30.10;;;;;;5109179;27;34534;-77
2022/03/24 04:35:16;;;;;;;16.17;7.78;;;1.30;30.30;;;;;;5126250;27;35347;-77
2022/03/24 04:37:43;;;;;;;11.98;7.25;;;1.30;30.50;;;;;;5109407;27;34222;-77
2022/03/24 04:40:11;;;;;;;13.20;7.30;;;1.20;30.30;;;;;;5126519;27;34246;-77
2022/03/24 04:42:39;;;;;;;21.70;7.95;;;1.20;30.40;;;;;;5109990;27;34500;-77
2022/03/24 04:45:06;;;;;;;14.55;7.97;;;1.20;30.50;;;;;;5108594;27;36540;-77
2022/03/24 04:47:34;;;;;;;13.95;7.20;;;1.20;30.40;;;;;;5126526;27;34469;-78
2022/03/24 04:50:00;;;;;;;12.07;7.45;;;1.20;30.20;;;;;;5126638;27;34278;-78
2022/03/24 04:52:26;;;;;;;12.95;6.60;;;1.20;30.40;;;;;;5144645;27;34432;-77
2022/03/24 04:54:52;;;;;;;11.40;7.03;;;1.20;30.50;;;;;;5144430;27;35259;-77
2022/03/24 04:57:18;;;;;;;12.98;6.85;;;1.20;30.90;;;;;;5126446;27;34426;-77
2022/03/24 04:59:44;;;;;;;14.13;7.38;;;1.10;30.50;;;;;;5126311;27;34445;-78
2022/03/24 05:02:15;;;;;;;12.20;7.47;;;1.10;30.30;;;;;;5144261;27;34409;-76
2022/03/24 05:04:42;;;;;;;12.23;6.85;;;1.10;30.40;;;;;;5125598;27;35531;-77
2022/03/24 05:07:09;;;;;;;11.45;7.53;;;1.10;30.90;;;;;;5108851;27;34178;-77
2022/03/24 05:09:35;;;;;;;13.05;7.85;;;1.10;30.70;;;;;;5108495;27;34129;-78
2022/03/24 05:12:02;;;;;;;12.68;7.18;;;1.10;30.70;;;;;;5108605;27;34270;-76
2022/03/24 05:14:28;;;;;;;12.45;7.00;;;1.00;30.80;;;;;;5144371;27;34326;-77
2022/03/24 05:16:54;;;;;;;12.98;7.22;;;1.00;30.80;;;;;;5125499;27;34375;-78
2022/03/24 05:19:19;;;;;;;14.77;7.97;;;1.00;30.80;;;;;;5144458;27;34304;-77
2022/03/24 05:21:46;;;;;;;12.55;7.47;;;1.00;30.50;;;;;;5143705;27;34235;-77
2022/03/24 05:24:12;;;;;;;13.77;7.45;;;1.00;30.30;;;;;;5107932;27;36573;-76
2022/03/24 05:26:39;;;;;;;11.82;7.53;;;1.00;30.40;;;;;;5126000;27;34388;-77
2022/03/24 05:29:05;;;;;;;12.63;8.25;;;1.00;30.50;;;;;;5125743;27;34375;-77
2022/03/24 05:31:31;;;;;;;14.02;8.18;;;1.00;30.70;;;;;;5124667;27;34489;-77
2022/03/24 05:33:57;;;;;;;13.07;6.80;;;1.00;31.20;;;;;;5108159;27;35486;-77
2022/03/24 05:36:23;;;;;;;14.15;7.25;;;0.90;30.90;;;;;;5143866;27;34252;-78
2022/03/24 05:38:51;;;;;;;14.90;8.00;;;0.90;31.00;;;;;;5126167;27;34306;-78
2022/03/24 05:41:18;;;;;;;14.07;6.53;;;0.90;30.90;;;;;;5149154;27;34273;-78
2022/03/24 05:44:02;;;;;;;12.45;7.15;;;1.00;30.90;;;;;;5136764;27;35644;-76
2022/03/24 05:46:34;;;;;;;12.65;6.93;;;1.00;30.90;;;;;;5148659;27;34294;-78
2022/03/24 05:49:01;;;;;;;15.50;8.07;;;1.00;31.30;;;;;;5128108;27;34187;-77
2022/03/24 05:51:27;;;;;;;14.20;7.68;;;1.00;30.80;;;;;;5111125;27;34689;-77
2022/03/24 05:53:53;;;;;;;13.48;6.93;;;1.00;30.90;;;;;;5162632;27;35917;-77
2022/03/24 05:56:20;;;;;;;11.65;7.07;;;1.00;31.10;;;;;;5147014;27;34365;-77
2022/03/24 05:58:46;;;;;;;12.82;7.93;;;1.10;31.30;;;;;;5146370;27;34389;-77
2022/03/24 06:01:15;;;;;;;15.07;7.90;;;1.10;31.30;;;;;;5163336;27;34125;-77
2022/03/24 06:03:44;;;;;;;14.18;8.15;;;1.10;31.30;;;;;;5111014;27;36918;-77
2022/03/24 06:06:11;;;;;;;11.85;7.15;;;1.10;31.30;;;;;;5162919;27;34182;-77
2022/03/24 06:08:37;;;;;;;17.23;8.20;;;1.20;31.10;;;;;;5144533;27;34293;-77
2022/03/24 06:11:04;;;;;;;12.95;7.15;;;1.30;31.10;;;;;;5146281;27;34288;-77
2022/03/24 06:13:31;;;;;;;13.82;8.10;;;1.40;31.20;;;;;;5127896;27;35777;-77
2022/03/24 06:16:01;;;;;;;17.25;8.93;;;1.60;31.00;;;;;;5144769;27;34262;-76
2022/03/24 06:18:28;;;;;;;15.55;8.93;;;1.80;30.70;;;;;;5146383;27;34459;-78
2022/03/24 06:20:54;;;;;;;16.45;8.52;;;2.10;30.60;;;;;;5128338;27;34333;-77
2022/03/24 06:23:20;;;;;;;15.15;8.73;;;2.40;30.30;;;;;;5144780;27;35698;-77
2022/03/24 06:25:46;;;;;;;14.65;7.97;;;2.70;29.70;;;;;;5162220;27;34277;-77
2022/03/24 06:28:12;;;;;;;18.08;8.88;;;3.00;29.20;;;;;;5162891;27;34111;-77
2022/03/24 06:30:38;;;;;;;17.13;8.82;;;3.20;28.70;;;;;;5117399;27;34035;-77
2022/03/24 06:33:04;;;;;;;17.13;8.75;;;3.50;28.10;;;;;;5111005;27;35629;-77
2022/03/24 06:35:30;;;;;;;17.15;9.82;;;3.80;27.70;;;;;;5162252;27;34393;-76
2022/03/24 06:37:56;;;;;;;16.48;8.63;;;4.10;27.10;;;;;;5162743;27;34318;-77
2022/03/24 06:40:22;;;;;;;15.75;8.98;;;4.40;26.80;;;;;;5162644;27;34312;-77
2022/03/24 06:42:49;;;;;;;24.60;9.02;;;4.80;26.40;;;;;;5163484;27;36397;-77
2022/03/24 06:45:15;;;;;;;20.38;8.43;;;4.90;25.90;;;;;;5147366;27;34112;-78
2022/03/24 06:47:41;;;;;;;15.88;8.45;;;5.10;25.40;;;;;;5163137;27;34169;-77
2022/03/24 06:50:10;;;;;;;14.57;9.00;;;5.30;25.10;;;;;;5163854;27;34118;-77
2022/03/24 06:52:36;;;;;;;16.05;9.32;;;5.40;25.20;;;;;;5147532;27;35298;-77
2022/03/24 06:55:05;;;;;;;14.95;8.85;;;5.60;25.10;;;;;;5164610;27;34161;-77
2022/03/24 06:57:31;;;;;;;14.73;8.27;;;5.70;25.20;;;;;;5129006;27;34243;-76
2022/03/24 06:59:58;;;;;;;13.55;8.48;;;5.90;25.00;;;;;;5147965;27;34060;-76
2022/03/24 07:02:24;;;;;;;13.77;8.70;;;6.10;24.70;;;;;;5130073;27;35615;-76
2022/03/24 07:04:50;;;;;;;16.30;9.20;;;6.40;24.40;;;;;;5149119;27;34312;-76
2022/03/24 07:07:16;;;;;;;16.35;8.45;;;6.60;24.40;;;;;;5148311;27;34351;-76
2022/03/24 07:09:42;;;;;;;18.98;9.13;;;6.80;24.00;;;;;;5129640;27;34111;-75
2022/03/24 07:12:08;;;;;;;17.58;9.13;;;6.90;23.90;;;;;;5129047;27;35541;-75
2022/03/24 07:14:34;;;;;;;19.45;10.32;;;7.00;23.80;;;;;;5129123;27;34185;-75
2022/03/24 07:17:00;;;;;;;17.10;10.00;;;7.10;23.80;;;;;;5129878;27;34206;-75
2022/03/24 07:19:26;;;;;;;18.17;9.50;;;7.30;23.60;;;;;;5130051;27;34091;-75
2022/03/24 07:21:52;;;;;;;17.20;9.60;;;7.50;23.30;;;;;;5164681;27;36237;-75
2022/03/24 07:24:17;;;;;;;20.23;9.25;;;7.70;23.20;;;;;;5148982;27;34409;-75
2022/03/24 07:26:43;;;;;;;15.85;8.65;;;7.80;23.10;;;;;;5148539;27;34275;-75
2022/03/24 07:29:10;;;;;;;16.83;8.63;;;8.00;23.40;;;;;;5165358;27;34191;-75
2022/03/24 07:31:37;;;;;;;14.35;8.98;;;8.20;23.50;;;;;;5148675;27;34319;-75
2022/03/24 07:34:04;;;;;;;14.48;8.10;;;8.40;23.80;;;;;;5131251;27;34369;-75
2022/03/24 07:36:31;;;;;;;13.43;8.50;;;8.40;23.40;;;;;;5164194;27;34185;-75
2022/03/24 07:38:58;;;;;;;18.17;9.15;;;8.60;23.40;;;;;;5148019;27;34171;-75
2022/03/24 07:41:25;;;;;;;14.73;9.07;;;8.70;23.50;;;;;;5148728;27;35142;-75
2022/03/24 07:43:51;;;;;;;14.60;9.00;;;8.90;23.50;;;;;;5164461;27;34150;-76
2022/03/24 07:46:17;;;;;;;13.65;9.00;;;9.00;24.00;;;;;;5164663;27;34031;-75
2022/03/24 07:48:47;;;;;;;15.73;9.05;;;9.20;23.40;;;;;;5165355;27;34416;-76
2022/03/24 07:51:13;;;;;;;14.15;9.15;;;9.40;23.90;;;;;;5164432;27;35604;-75
2022/03/24 07:53:57;;;;;;;19.25;9.32;;;9.60;23.30;;;;;;5147056;27;34413;-75
2022/03/24 07:56:24;;;;;;;19.90;9.00;;;9.80;23.20;;;;;;5147121;27;34356;-75
2022/03/24 07:58:51;;;;;;;18.33;9.52;;;9.70;22.80;;;;;;5147203;27;34132;-75
2022/03/24 08:01:26;;;;;;;16.10;9.98;;;9.80;22.90;;;;;;5163907;27;35841;-75
2022/03/24 08:03:53;;;;;;;17.23;10.15;;;9.80;23.00;;;;;;5148395;27;34205;-75
2022/03/24 08:06:21;;;;;;;16.88;9.63;;;9.90;23.10;;;;;;5128575;27;34265;-77
2022/03/24 08:08:48;;;;;;;16.80;9.57;;;10.00;23.20;;;;;;5146224;27;34214;-75
2022/03/24 08:11:14;;;;;;;19.27;9.77;;;10.20;23.40;;;;;;5164199;27;35578;-76
2022/03/24 08:13:40;;;;;;;13.93;9.13;;;10.30;23.20;;;;;;5162682;27;33895;-75
2022/03/24 08:16:07;;;;;;;14.98;9.43;;;10.50;23.00;;;;;;5163427;27;34215;-75
2022/03/24 08:18:32;;;;;;;21.17;10.50;;;10.60;23.00;;;;;;5164247;27;34196;-75
2022/03/24 08:20:59;;;;;;;14.10;9.35;;;10.70;23.00;;;;;;5129183;27;36633;-75
2022/03/24 08:23:25;;;;;;;17.75;10.18;;;10.80;22.50;;;;;;5164177;27;34082;-75
2022/03/24 08:25:52;;;;;;;21.30;10.13;;;11.00;22.50;;;;;;5146895;27;34170;-75
2022/03/24 08:28:18;;;;;;;19.58;10.63;;;11.00;22.30;;;;;;5112505;27;34197;-75
2022/03/24 08:30:45;;;;;;;17.27;9.57;;;11.20;22.20;;;;;;5129146;27;35985;-76
2022/03/24 08:33:12;;;;;;;15.30;9.30;;;11.40;22.00;;;;;;5147071;27;34168;-77
2022/03/24 08:35:40;;;;;;;18.60;10.38;;;11.50;21.80;;;;;;5113215;27;34308;-76
2022/03/24 08:38:08;;;;;;;17.33;11.27;;;11.60;21.70;;;;;;5118191;27;34390;-75
2022/03/24 08:40:35;;;;;;;17.15;10.23;;;11.70;21.40;;;;;;5127295;27;36041;-76
2022/03/24 08:43:03;;;;;;;24.42;11.40;;;11.90;21.60;;;;;;5129766;27;34311;-76
2022/03/24 08:48:14;;;;;;;17.63;9.50;;;12.40;21.00;;;;;;5149236;27;34071;-75
2022/03/24 08:50:41;;;;;;;16.83;10.63;;;12.70;20.90;;;;;;5164101;27;35454;-75
2022/03/24 08:53:07;;;;;;;18.55;10.70;;;12.80;20.50;;;;;;5112337;27;34300;-76
2022/03/24 08:55:34;;;;;;;15.98;10.25;;;12.90;19.90;;;;;;5130344;27;34302;-76
2022/03/24 08:58:00;;;;;;;16.95;10.52;;;13.20;19.80;;;;;;5112303;27;34515;-76
2022/03/24 09:00:26;;;;;;;18.55;11.02;;;13.50;19.60;;;;;;5130177;27;35618;-75
2022/03/24 09:02:56;;;;;;;17.30;10.57;;;13.70;19.40;;;;;;5128984;27;34273;-75
2022/03/24 09:05:23;;;;;;;17.65;11.27;;;14.00;19.10;;;;;;5129321;27;34210;-76
2022/03/24 09:07:49;;;;;;;19.10;11.13;;;14.10;18.70;;;;;;5129533;27;34209;-76
2022/03/24 09:10:16;;;;;;;20.00;11.00;;;14.30;18.70;;;;;;5129479;27;35524;-75
2022/03/24 09:12:44;;;;;;;20.17;11.77;;;14.40;18.40;;;;;;5128276;27;34210;-76
2022/03/24 09:15:11;;;;;;;18.58;11.48;;;14.50;18.30;;;;;;5115725;27;34260;-76
2022/03/24 09:17:39;;;;;;;19.80;11.65;;;14.70;18.00;;;;;;5115997;27;34405;-76
2022/03/24 09:20:10;;;;;;;20.35;11.05;;;15.00;18.10;;;;;;5151885;27;34828;-75
2022/03/24 09:22:37;;;;;;;20.67;11.07;;;15.20;17.60;;;;;;5133671;27;34193;-76
2022/03/24 09:25:04;;;;;;;18.10;11.10;;;15.40;17.60;;;;;;5133998;27;34301;-76
2022/03/24 09:27:30;;;;;;;18.73;11.57;;;15.70;17.40;;;;;;5133168;27;34394;-76
2022/03/24 09:29:56;;;;;;;21.17;11.40;;;15.80;17.20;;;;;;5133537;27;37053;-76
2022/03/24 09:32:22;;;;;;;24.25;11.95;;;16.10;17.10;;;;;;5133203;27;34242;-76
2022/03/24 09:34:48;;;;;;;18.33;11.20;;;16.40;17.00;;;;;;5153419;27;34096;-76
2022/03/24 09:37:17;;;;;;;18.33;11.35;;;16.80;16.90;;;;;;5133703;27;34249;-75
2022/03/24 09:39:43;;;;;;;24.30;11.60;;;17.00;16.60;;;;;;5133533;27;36396;-76
2022/03/24 09:42:09;;;;;;;22.42;11.63;;;17.20;16.20;;;;;;5133615;27;34197;-76
2022/03/24 09:44:37;;;;;;;20.23;11.68;;;17.40;16.00;;;;;;5133099;27;34071;-76
2022/03/24 09:47:03;;;;;;;23.17;12.20;;;17.60;15.70;;;;;;5133618;27;34214;-76
2022/03/24 09:49:30;;;;;;;20.17;12.65;;;17.90;15.50;;;;;;5133705;27;34171;-76
2022/03/24 09:51:56;;;;;;;26.45;12.75;;;18.10;15.20;;;;;;5133977;27;34067;-76
2022/03/24 09:54:21;;;;;;;22.52;12.57;;;18.30;14.80;;;;;;5151221;27;34015;-76
2022/03/24 09:56:47;;;;;;;24.17;12.73;;;18.40;14.50;;;;;;5150577;27;34409;-76
2022/03/24 09:59:14;;;;;;;23.88;13.45;;;18.70;14.50;;;;;;5152252;27;34365;-76
2022/03/24 10:01:40;;;;;;;28.20;14.13;;;19.00;14.00;;;;;;5151629;27;34449;-76
2022/03/24 10:04:11;;;;;;;23.85;13.45;;;19.30;13.60;;;;;;5134089;27;34327;-76
2022/03/24 10:06:39;;;;;;;26.83;14.75;;;19.60;12.60;;;;;;5132549;27;33683;-76
2022/03/24 10:09:06;;;;;;;31.73;15.63;;;19.90;12.90;;;;;;5132707;27;35939;-76
2022/03/24 10:11:35;;;;;;;27.42;15.27;;;20.10;13.00;;;;;;5150183;27;34443;-76
2022/03/24 10:14:02;;;;;;;26.27;14.63;;;20.40;12.70;;;;;;5149613;27;34195;-76
2022/03/24 10:16:41;;;;;;;24.65;15.07;;;20.60;11.90;;;;;;5149792;27;34402;-75
2022/03/24 10:19:11;;;;;;;24.73;14.95;;;20.80;7.50;;;;;;5121710;27;35887;-75
2022/03/24 10:21:40;;;;;;;26.05;15.27;;;20.90;10.40;;;;;;5127832;27;34266;-75
2022/03/24 10:24:12;;;;;;;28.77;15.02;;;21.10;10.40;;;;;;5149606;27;33797;-76
2022/03/24 10:27:00;;;;;;;25.25;15.05;;;21.20;10.40;;;;;;5132479;27;34541;-75
2022/03/24 10:29:27;;;;;;;26.25;15.55;;;21.40;5.30;;;;;;5132732;27;35551;-76
2022/03/24 10:31:55;;;;;;;26.17;15.10;;;21.40;10.30;;;;;;5150195;27;34513;-75
2022/03/24 10:34:38;;;;;;;27.15;15.07;;;21.60;10.00;;;;;;5132574;27;34191;-76
2022/03/24 10:37:12;;;;;;;25.75;15.20;;;21.80;4.20;;;;;;5149656;27;34342;-76
2022/03/24 10:39:53;;;;;;;26.33;15.63;;;21.90;7.10;;;;;;5151334;27;34643;-76
2022/03/24 10:42:20;;;;;;;28.40;15.43;;;22.00;9.10;;;;;;5150170;27;34271;-76
2022/03/24 10:45:17;;;;;;;24.13;15.38;;;22.20;9.10;;;;;;5149136;27;34414;-76
2022/03/24 10:47:51;;;;;;;26.80;16.30;;;22.30;4.40;;;;;;5149663;27;34313;-76
2022/03/24 10:50:38;;;;;;;27.67;15.63;;;22.50;6.50;;;;;;5116444;27;35797;-76
2022/03/24 10:53:08;;;;;;;26.35;15.25;;;22.50;2.20;;;;;;5123747;27;34168;-76
2022/03/24 10:56:14;;;;;;;24.75;14.90;;;22.50;6.50;;;;;;5101137;27;34134;-76
2022/03/24 10:58:44;;;;;;;27.23;14.90;;;22.70;2.80;;;;;;5098318;27;34204;-76
2022/03/24 11:01:11;;;;;;;26.15;15.20;;;22.80;6.70;;;;;;5128708;27;34126;-76
2022/03/24 11:03:39;;;;;;;25.65;14.73;;;22.90;7.40;;;;;;5109524;27;34468;-76
2022/03/24 11:06:09;;;;;;;25.08;15.35;;;22.90;7.30;;;;;;5111179;27;34071;-76
2022/03/24 11:08:35;;;;;;;25.25;14.57;;;23.00;5.60;;;;;;5111128;27;34296;-76
2022/03/24 11:11:06;;;;;;;26.50;14.82;;;23.00;6.90;;;;;;5129210;27;34981;-76
2022/03/24 11:13:52;;;;;;;27.20;14.65;;;23.00;4.80;;;;;;5127187;27;34079;-76
2022/03/24 11:16:22;;;;;;;23.17;13.23;;;23.00;1.00;;;;;;5110865;27;33822;-76
2022/03/24 11:18:49;;;;;;;22.90;13.40;;;23.10;5.50;;;;;;5110653;27;33945;-76
2022/03/24 11:21:33;;;;;;;24.08;13.52;;;23.10;5.80;;;;;;5110546;27;35489;-76
2022/03/24 11:24:00;;;;;;;23.98;13.02;;;23.20;1.70;;;;;;5111134;27;34174;-76
2022/03/24 11:26:27;;;;;;;22.25;12.63;;;23.40;5.50;;;;;;5128559;27;34501;-76
2022/03/24 11:28:54;;;;;;;20.17;12.10;;;23.60;5.50;;;;;;5109158;27;34612;-76
2022/03/24 11:31:20;;;;;;;19.75;10.68;;;23.80;4.80;;;;;;5108292;27;36650;-76
2022/03/24 11:33:49;;;;;;;15.32;10.32;;;23.80;4.70;;;;;;5127046;27;34068;-77
2022/03/24 11:36:17;;;;;;;18.40;10.48;;;23.90;4.20;;;;;;5124761;27;34272;-75
2022/03/24 11:38:46;;;;;;;21.00;11.52;;;24.00;3.00;;;;;;5108373;27;34201;-76
2022/03/24 11:41:25;;;;;;;16.75;10.40;;;23.90;3.50;;;;;;5107464;27;35910;-76
2022/03/24 11:43:56;;;;;;;18.05;10.68;;;23.80;1.00;;;;;;5108034;27;34225;-76
2022/03/24 11:46:39;;;;;;;19.95;11.68;;;23.80;2.20;;;;;;5108183;27;34278;-76
2022/03/24 11:49:22;;;;;;;20.17;11.35;;;23.80;1.00;;;;;;5109330;27;34554;-76
2022/03/24 11:51:52;;;;;;;19.02;10.55;;;23.80;1.00;;;;;;5108297;27;35802;-76
2022/03/24 11:54:35;;;;;;;18.35;11.10;;;23.70;2.60;;;;;;5107674;27;34593;-76
2022/03/24 11:57:32;;;;;;;16.90;10.52;;;23.60;1.00;;;;;;5109263;27;34277;-76
2022/03/24 12:00:33;;;;;;;22.23;11.90;;;23.50;1.00;;;;;;5100459;28;34205;-78
2022/03/24 12:03:01;;;;;;;21.88;10.80;;;23.30;1.00;;;;;;5110746;27;35292;-76
2022/03/24 12:05:50;;;;;;;22.02;11.13;;;23.20;2.80;;;;;;5126771;27;34106;-76
2022/03/24 12:08:27;;;;;;;20.25;10.52;;;23.20;1.00;;;;;;5091380;28;34180;-76
2022/03/24 12:10:53;;;;;;;18.27;11.15;;;23.30;1.00;;;;;;5106325;28;34196;-76
2022/03/24 12:13:21;;;;;;;18.38;11.50;;;23.40;2.80;;;;;;5087102;28;35908;-76
2022/03/24 12:16:12;;;;;;;19.80;10.55;;;23.40;1.70;;;;;;5104984;28;34220;-76
2022/03/24 12:18:42;;;;;;;23.23;11.43;;;23.30;1.00;;;;;;5086983;28;34131;-76
2022/03/24 12:21:08;;;;;;;16.02;10.77;;;23.40;1.00;;;;;;5087267;28;34805;-76
2022/03/24 12:24:05;;;;;;;21.60;10.95;;;23.40;2.30;;;;;;5105150;28;35922;-77
2022/03/24 12:26:47;;;;;;;19.02;10.02;;;23.40;1.00;;;;;;5088499;28;34247;-77
2022/03/24 12:29:15;;;;;;;18.95;10.20;;;23.40;1.70;;;;;;5089160;28;34187;-76
2022/03/24 12:31:58;;;;;;;19.02;10.98;;;23.50;1.20;;;;;;5106428;28;34251;-76
2022/03/24 12:34:44;;;;;;;21.10;10.40;;;23.60;1.00;;;;;;5087606;28;35846;-76
2022/03/24 12:37:41;;;;;;;19.75;11.20;;;23.60;1.00;;;;;;5087748;28;34188;-76
2022/03/24 12:40:12;;;;;;;17.55;10.15;;;23.40;1.00;;;;;;5087584;28;34497;-76
2022/03/24 12:42:54;;;;;;;20.25;11.52;;;23.30;1.00;;;;;;5105397;28;34346;-76
2022/03/24 12:45:39;;;;;;;17.92;10.07;;;23.20;1.00;;;;;;5105264;28;35419;-76
2022/03/24 12:48:11;;;;;;;15.55;9.85;;;23.10;1.00;;;;;;5088877;28;34167;-76
2022/03/24 12:50:52;;;;;;;18.05;9.45;;;23.20;1.00;;;;;;5109994;28;34245;-76
2022/03/24 12:53:18;;;;;;;13.32;8.20;;;23.20;1.00;;;;;;5108863;28;34176;-76